Burstall, Canada
Current Conditions -  °F | °C
As of 12:00 PM on Monday 24 Nov 2014 (Local Time) from CYXH Reporting Station
Broken Clouds Broken Clouds  
Wind Chill: 29°   Ceiling: 12000
Heat Index: 37°   Visibility: 30mi
Dew Point: 28°   Wind: 14mph
Humidity: 70%   Direction: 280°W
Pressure: 30.06"   Gusts: NA
Location:  50.65°N, 109.92°W
Report Text: CYXH 241800Z 28012KT 30SM FEW050 BKN120 03/M02 A3006 RMK SC2AC4 SLP205
Loading
Personal Weather Stations






























Interactive Weather Map New forecast layout! Learn more

10-Day Weather Forecast

Advertisements
Track Severe Weather on mobile